KBAB

Beale AFB Airport

Marysville, California, USA
METAR KBAB 180758Z AUTO 05004KT 10SM CLR 06/02 A3013 RMK AO2 SLP206 T00570020 401670038 $
Observed Flight Rules
Dec-18 @ 07:58 UTC (43 minutes ago) Visual Flight Rules
Wind Visibility Clouds
50° at 4 knots 10 miles
  • Clear skies
Temperatures Readings
Current 6°C / 43°F
Dewpoint 2°C / 36°F
Humidity 76%
Altimeter 30.13" Hg
Pressure 1020.6 hPa
Elevation 34
METAR KBAB 180758Z AUTO 05004KT 10SM CLR 06/02 A3013 RMK AO2 SLP206 T00570020 401670038 $
Observed Flight Rules
Dec-18 @ 07:58 UTC
(43 minutes ago)
VFR
Wind Visibility
50° at 4 knots 10 miles
Clouds
  • Clear skies
Temperature Dewpoint
6°C / 43°F 2°C / 36°F
Humidity Altimeter Pressure
76% 30.13" Hg 1020.6 hPa